Terminal Aerodrome Forecast
Issued by NWS Wilmington, OH

Home | Current Version | Previous Version | Text Only | Print | Product List | Glossary On
Versions: 1 2 3 4 5 6 7 8 9 10 11 12 13 14 15 16 17
000
FTUS41 KILN 192007 AAA
TAFDAY
TAF AMD
KDAY 192007Z 1920/2018 18006KT P6SM VCSH BKN070
      TEMPO 1920/1922 BKN015
     FM192300 18004KT P6SM BKN070
     FM200600 VRB03KT 4SM BR SCT050
     FM201000 19004KT 2SM BR BKN010
     FM201400 21004KT P6SM BKN025
     FM201500 23004KT P6SM SCT030=

USA.gov is the U.S. government's official web portal to all federal, state and local government web resources and services.